sensor_id;sensor_type;location;lat;lon;timestamp;P1;durP1;ratioP1;P2;durP2;ratioP2
69542;SDS011;56762;49.494;11.768;2023-03-14T00:00:35;0.93;;;0.20;;
69542;SDS011;56762;49.494;11.768;2023-03-14T00:03:04;1.27;;;0.20;;
69542;SDS011;56762;49.494;11.768;2023-03-14T00:05:33;0.80;;;0.20;;
69542;SDS011;56762;49.494;11.768;2023-03-14T00:08:01;1.63;;;0.10;;
69542;SDS011;56762;49.494;11.768;2023-03-14T00:10:29;1.52;;;0.20;;
69542;SDS011;56762;49.494;11.768;2023-03-14T00:12:56;1.00;;;0.20;;
69542;SDS011;56762;49.494;11.768;2023-03-14T00:15:24;0.82;;;0.10;;
69542;SDS011;56762;49.494;11.768;2023-03-14T00:17:52;0.90;;;0.10;;
69542;SDS011;56762;49.494;11.768;2023-03-14T00:20:21;1.95;;;0.10;;
69542;SDS011;56762;49.494;11.768;2023-03-14T00:22:49;1.77;;;0.20;;
69542;SDS011;56762;49.494;11.768;2023-03-14T00:25:17;0.50;;;0.10;;
69542;SDS011;56762;49.494;11.768;2023-03-14T00:27:45;0.77;;;0.10;;
69542;SDS011;56762;49.494;11.768;2023-03-14T00:30:13;1.67;;;0.10;;
69542;SDS011;56762;49.494;11.768;2023-03-14T00:32:41;0.32;;;0.10;;
69542;SDS011;56762;49.494;11.768;2023-03-14T00:35:09;1.33;;;0.20;;
69542;SDS011;56762;49.494;11.768;2023-03-14T00:37:38;1.10;;;0.22;;
69542;SDS011;56762;49.494;11.768;2023-03-14T00:40:08;2.15;;;0.10;;
69542;SDS011;56762;49.494;11.768;2023-03-14T00:42:36;0.83;;;0.13;;
69542;SDS011;56762;49.494;11.768;2023-03-14T00:45:04;2.15;;;0.60;;
69542;SDS011;56762;49.494;11.768;2023-03-14T00:47:33;0.60;;;0.10;;
69542;SDS011;56762;49.494;11.768;2023-03-14T00:50:01;2.20;;;0.10;;
69542;SDS011;56762;49.494;11.768;2023-03-14T00:52:29;0.80;;;0.00;;
69542;SDS011;56762;49.494;11.768;2023-03-14T00:54:58;1.00;;;0.10;;
69542;SDS011;56762;49.494;11.768;2023-03-14T00:57:25;0.85;;;0.10;;
69542;SDS011;56762;49.494;11.768;2023-03-14T00:59:53;0.80;;;0.10;;
69542;SDS011;56762;49.494;11.768;2023-03-14T01:02:21;1.02;;;0.00;;
69542;SDS011;56762;49.494;11.768;2023-03-14T01:04:49;0.50;;;0.10;;
69542;SDS011;56762;49.494;11.768;2023-03-14T01:07:17;0.50;;;0.10;;
69542;SDS011;56762;49.494;11.768;2023-03-14T01:09:45;0.65;;;0.13;;
69542;SDS011;56762;49.494;11.768;2023-03-14T01:12:14;0.17;;;0.00;;
69542;SDS011;56762;49.494;11.768;2023-03-14T01:14:42;0.82;;;0.00;;
69542;SDS011;56762;49.494;11.768;2023-03-14T01:17:09;0.52;;;0.00;;
69542;SDS011;56762;49.494;11.768;2023-03-14T01:19:37;0.77;;;0.00;;
69542;SDS011;56762;49.494;11.768;2023-03-14T01:22:05;0.35;;;0.00;;
69542;SDS011;56762;49.494;11.768;2023-03-14T01:24:33;0.77;;;0.00;;
69542;SDS011;56762;49.494;11.768;2023-03-14T01:27:01;0.60;;;0.00;;
69542;SDS011;56762;49.494;11.768;2023-03-14T01:29:30;0.40;;;0.00;;
69542;SDS011;56762;49.494;11.768;2023-03-14T01:31:58;1.03;;;0.00;;
69542;SDS011;56762;49.494;11.768;2023-03-14T01:34:26;0.13;;;0.00;;
69542;SDS011;56762;49.494;11.768;2023-03-14T01:36:53;0.25;;;0.00;;
69542;SDS011;56762;49.494;11.768;2023-03-14T01:39:21;0.52;;;0.20;;
69542;SDS011;56762;49.494;11.768;2023-03-14T01:41:48;0.20;;;0.00;;
69542;SDS011;56762;49.494;11.768;2023-03-14T01:44:16;1.07;;;0.27;;
69542;SDS011;56762;49.494;11.768;2023-03-14T01:46:46;0.22;;;0.00;;
69542;SDS011;56762;49.494;11.768;2023-03-14T01:49:18;0.60;;;0.10;;
69542;SDS011;56762;49.494;11.768;2023-03-14T01:51:51;0.55;;;0.10;;
69542;SDS011;56762;49.494;11.768;2023-03-14T01:54:24;0.65;;;0.15;;
69542;SDS011;56762;49.494;11.768;2023-03-14T01:56:55;0.30;;;0.00;;
69542;SDS011;56762;49.494;11.768;2023-03-14T01:59:27;0.85;;;0.15;;
69542;SDS011;56762;49.494;11.768;2023-03-14T02:01:58;0.80;;;0.00;;
69542;SDS011;56762;49.494;11.768;2023-03-14T02:04:28;0.65;;;0.05;;
69542;SDS011;56762;49.494;11.768;2023-03-14T02:07:03;0.40;;;0.10;;
69542;SDS011;56762;49.494;11.768;2023-03-14T02:09:37;0.40;;;0.00;;
69542;SDS011;56762;49.494;11.768;2023-03-14T02:12:06;0.60;;;0.10;;
69542;SDS011;56762;49.494;11.768;2023-03-14T02:14:35;0.60;;;0.10;;
69542;SDS011;56762;49.494;11.768;2023-03-14T02:17:05;0.95;;;0.10;;
69542;SDS011;56762;49.494;11.768;2023-03-14T02:19:36;0.57;;;0.00;;
69542;SDS011;56762;49.494;11.768;2023-03-14T02:22:14;0.70;;;0.10;;
69542;SDS011;56762;49.494;11.768;2023-03-14T02:24:45;1.15;;;0.10;;
69542;SDS011;56762;49.494;11.768;2023-03-14T02:27:19;0.75;;;0.10;;
69542;SDS011;56762;49.494;11.768;2023-03-14T02:29:49;0.77;;;0.10;;
69542;SDS011;56762;49.494;11.768;2023-03-14T02:32:20;1.55;;;0.10;;
69542;SDS011;56762;49.494;11.768;2023-03-14T02:34:50;0.73;;;0.10;;
69542;SDS011;56762;49.494;11.768;2023-03-14T02:37:21;0.80;;;0.20;;
69542;SDS011;56762;49.494;11.768;2023-03-14T02:39:53;0.65;;;0.10;;
69542;SDS011;56762;49.494;11.768;2023-03-14T02:42:22;2.47;;;0.10;;
69542;SDS011;56762;49.494;11.768;2023-03-14T02:44:51;0.77;;;0.10;;
69542;SDS011;56762;49.494;11.768;2023-03-14T02:47:22;0.50;;;0.20;;
69542;SDS011;56762;49.494;11.768;2023-03-14T02:49:56;0.52;;;0.10;;
69542;SDS011;56762;49.494;11.768;2023-03-14T02:52:28;0.50;;;0.10;;
69542;SDS011;56762;49.494;11.768;2023-03-14T02:54:56;0.88;;;0.00;;
69542;SDS011;56762;49.494;11.768;2023-03-14T02:57:25;0.15;;;0.00;;
69542;SDS011;56762;49.494;11.768;2023-03-14T02:59:53;0.10;;;0.00;;
69542;SDS011;56762;49.494;11.768;2023-03-14T03:02:21;0.60;;;0.00;;
69542;SDS011;56762;49.494;11.768;2023-03-14T03:04:49;0.28;;;0.00;;
69542;SDS011;56762;49.494;11.768;2023-03-14T03:07:17;0.52;;;0.00;;
69542;SDS011;56762;49.494;11.768;2023-03-14T03:09:45;0.35;;;0.00;;
69542;SDS011;56762;49.494;11.768;2023-03-14T03:12:13;0.10;;;0.00;;
69542;SDS011;56762;49.494;11.768;2023-03-14T03:14:42;0.55;;;0.00;;
69542;SDS011;56762;49.494;11.768;2023-03-14T03:17:10;0.08;;;0.00;;
69542;SDS011;56762;49.494;11.768;2023-03-14T03:19:38;0.70;;;0.00;;
69542;SDS011;56762;49.494;11.768;2023-03-14T03:22:06;2.40;;;0.20;;
69542;SDS011;56762;49.494;11.768;2023-03-14T03:24:33;0.10;;;0.00;;
69542;SDS011;56762;49.494;11.768;2023-03-14T03:27:02;0.70;;;0.00;;
69542;SDS011;56762;49.494;11.768;2023-03-14T03:29:29;0.00;;;0.00;;
69542;SDS011;56762;49.494;11.768;2023-03-14T03:31:58;0.20;;;0.00;;
69542;SDS011;56762;49.494;11.768;2023-03-14T03:34:26;0.95;;;0.00;;
69542;SDS011;56762;49.494;11.768;2023-03-14T03:36:55;0.00;;;0.00;;
69542;SDS011;56762;49.494;11.768;2023-03-14T03:39:25;0.10;;;0.00;;
69542;SDS011;56762;49.494;11.768;2023-03-14T03:41:53;0.20;;;0.00;;
69542;SDS011;56762;49.494;11.768;2023-03-14T03:44:21;0.20;;;0.00;;
69542;SDS011;56762;49.494;11.768;2023-03-14T03:46:49;0.73;;;0.00;;
69542;SDS011;56762;49.494;11.768;2023-03-14T03:49:18;0.50;;;0.00;;
69542;SDS011;56762;49.494;11.768;2023-03-14T03:51:46;0.17;;;0.00;;
69542;SDS011;56762;49.494;11.768;2023-03-14T03:54:14;0.10;;;0.00;;
69542;SDS011;56762;49.494;11.768;2023-03-14T03:56:42;0.08;;;0.00;;
69542;SDS011;56762;49.494;11.768;2023-03-14T03:59:10;0.20;;;0.00;;
69542;SDS011;56762;49.494;11.768;2023-03-14T04:01:38;0.13;;;0.00;;
69542;SDS011;56762;49.494;11.768;2023-03-14T04:04:06;0.10;;;0.00;;
69542;SDS011;56762;49.494;11.768;2023-03-14T04:06:36;0.00;;;0.00;;
69542;SDS011;56762;49.494;11.768;2023-03-14T04:09:04;0.65;;;0.00;;
69542;SDS011;56762;49.494;11.768;2023-03-14T04:11:32;0.00;;;0.00;;
69542;SDS011;56762;49.494;11.768;2023-03-14T04:14:00;0.10;;;0.00;;
69542;SDS011;56762;49.494;11.768;2023-03-14T04:16:28;0.10;;;0.00;;
69542;SDS011;56762;49.494;11.768;2023-03-14T04:18:57;0.70;;;0.10;;
69542;SDS011;56762;49.494;11.768;2023-03-14T04:21:25;1.08;;;0.20;;
69542;SDS011;56762;49.494;11.768;2023-03-14T04:23:54;0.70;;;0.10;;
69542;SDS011;56762;49.494;11.768;2023-03-14T04:26:22;0.63;;;0.10;;
69542;SDS011;56762;49.494;11.768;2023-03-14T04:28:50;1.02;;;0.30;;
69542;SDS011;56762;49.494;11.768;2023-03-14T04:31:19;1.65;;;0.20;;
69542;SDS011;56762;49.494;11.768;2023-03-14T04:33:48;3.30;;;1.00;;
69542;SDS011;56762;49.494;11.768;2023-03-14T04:36:16;1.60;;;0.35;;
69542;SDS011;56762;49.494;11.768;2023-03-14T04:38:44;1.30;;;0.20;;
69542;SDS011;56762;49.494;11.768;2023-03-14T04:41:13;1.25;;;0.13;;
69542;SDS011;56762;49.494;11.768;2023-03-14T04:43:41;1.15;;;0.10;;
69542;SDS011;56762;49.494;11.768;2023-03-14T04:46:09;1.20;;;0.20;;
69542;SDS011;56762;49.494;11.768;2023-03-14T04:48:37;1.67;;;0.22;;
69542;SDS011;56762;49.494;11.768;2023-03-14T04:51:05;0.90;;;0.10;;
69542;SDS011;56762;49.494;11.768;2023-03-14T04:53:34;1.02;;;0.17;;
69542;SDS011;56762;49.494;11.768;2023-03-14T04:56:03;1.10;;;0.30;;
69542;SDS011;56762;49.494;11.768;2023-03-14T04:58:33;0.73;;;0.28;;
69542;SDS011;56762;49.494;11.768;2023-03-14T05:01:01;1.20;;;0.20;;
69542;SDS011;56762;49.494;11.768;2023-03-14T05:03:30;0.60;;;0.10;;
69542;SDS011;56762;49.494;11.768;2023-03-14T05:05:58;0.75;;;0.10;;
69542;SDS011;56762;49.494;11.768;2023-03-14T05:08:26;0.63;;;0.10;;
69542;SDS011;56762;49.494;11.768;2023-03-14T05:10:54;0.80;;;0.10;;
69542;SDS011;56762;49.494;11.768;2023-03-14T05:13:23;2.15;;;0.20;;
69542;SDS011;56762;49.494;11.768;2023-03-14T05:15:52;0.80;;;0.20;;
69542;SDS011;56762;49.494;11.768;2023-03-14T05:18:21;1.23;;;0.20;;
69542;SDS011;56762;49.494;11.768;2023-03-14T05:20:50;1.10;;;0.20;;
69542;SDS011;56762;49.494;11.768;2023-03-14T05:23:18;1.55;;;0.35;;
69542;SDS011;56762;49.494;11.768;2023-03-14T05:25:46;0.82;;;0.10;;
69542;SDS011;56762;49.494;11.768;2023-03-14T05:28:14;2.03;;;0.50;;
69542;SDS011;56762;49.494;11.768;2023-03-14T05:30:42;0.65;;;0.20;;
69542;SDS011;56762;49.494;11.768;2023-03-14T05:33:11;0.80;;;0.10;;
69542;SDS011;56762;49.494;11.768;2023-03-14T05:35:39;0.50;;;0.10;;
69542;SDS011;56762;49.494;11.768;2023-03-14T05:38:06;1.48;;;0.40;;
69542;SDS011;56762;49.494;11.768;2023-03-14T05:40:35;1.87;;;0.20;;
69542;SDS011;56762;49.494;11.768;2023-03-14T05:43:03;1.30;;;0.40;;
69542;SDS011;56762;49.494;11.768;2023-03-14T05:45:34;1.30;;;0.40;;
69542;SDS011;56762;49.494;11.768;2023-03-14T05:48:03;2.17;;;0.30;;
69542;SDS011;56762;49.494;11.768;2023-03-14T05:50:33;1.50;;;0.65;;
69542;SDS011;56762;49.494;11.768;2023-03-14T05:53:00;1.83;;;0.50;;
69542;SDS011;56762;49.494;11.768;2023-03-14T05:55:28;2.85;;;0.22;;
69542;SDS011;56762;49.494;11.768;2023-03-14T05:57:56;1.10;;;0.22;;
69542;SDS011;56762;49.494;11.768;2023-03-14T06:00:23;2.38;;;0.35;;
69542;SDS011;56762;49.494;11.768;2023-03-14T06:02:52;1.02;;;0.20;;
69542;SDS011;56762;49.494;11.768;2023-03-14T06:05:19;1.63;;;0.37;;
69542;SDS011;56762;49.494;11.768;2023-03-14T06:07:49;1.90;;;0.60;;
69542;SDS011;56762;49.494;11.768;2023-03-14T06:10:17;1.58;;;0.50;;
69542;SDS011;56762;49.494;11.768;2023-03-14T06:12:44;1.55;;;0.52;;
69542;SDS011;56762;49.494;11.768;2023-03-14T06:15:12;1.48;;;0.30;;
69542;SDS011;56762;49.494;11.768;2023-03-14T06:17:40;1.40;;;0.27;;
69542;SDS011;56762;49.494;11.768;2023-03-14T06:20:08;1.92;;;0.60;;
69542;SDS011;56762;49.494;11.768;2023-03-14T06:22:37;1.98;;;0.50;;
69542;SDS011;56762;49.494;11.768;2023-03-14T06:25:08;1.30;;;0.38;;
69542;SDS011;56762;49.494;11.768;2023-03-14T06:27:36;2.25;;;0.52;;
69542;SDS011;56762;49.494;11.768;2023-03-14T06:30:05;2.53;;;0.83;;
69542;SDS011;56762;49.494;11.768;2023-03-14T06:32:33;3.13;;;0.85;;
69542;SDS011;56762;49.494;11.768;2023-03-14T06:35:01;1.50;;;0.40;;
69542;SDS011;56762;49.494;11.768;2023-03-14T06:37:29;1.65;;;0.32;;
69542;SDS011;56762;49.494;11.768;2023-03-14T06:39:57;2.17;;;0.45;;
69542;SDS011;56762;49.494;11.768;2023-03-14T06:42:26;4.50;;;1.33;;
69542;SDS011;56762;49.494;11.768;2023-03-14T06:44:54;5.38;;;0.98;;
69542;SDS011;56762;49.494;11.768;2023-03-14T06:47:22;2.60;;;0.82;;
69542;SDS011;56762;49.494;11.768;2023-03-14T06:49:50;1.60;;;0.35;;
69542;SDS011;56762;49.494;11.768;2023-03-14T06:52:19;2.72;;;0.40;;
69542;SDS011;56762;49.494;11.768;2023-03-14T06:54:47;6.80;;;2.00;;
69542;SDS011;56762;49.494;11.768;2023-03-14T06:57:14;5.47;;;1.98;;
69542;SDS011;56762;49.494;11.768;2023-03-14T06:59:43;4.57;;;1.35;;
69542;SDS011;56762;49.494;11.768;2023-03-14T07:02:11;3.42;;;0.98;;
69542;SDS011;56762;49.494;11.768;2023-03-14T07:04:39;3.88;;;0.98;;
69542;SDS011;56762;49.494;11.768;2023-03-14T07:07:08;3.73;;;1.67;;
69542;SDS011;56762;49.494;11.768;2023-03-14T07:09:36;3.35;;;1.27;;
69542;SDS011;56762;49.494;11.768;2023-03-14T07:12:04;3.97;;;1.70;;
69542;SDS011;56762;49.494;11.768;2023-03-14T07:14:33;4.07;;;0.82;;
69542;SDS011;56762;49.494;11.768;2023-03-14T07:17:02;2.17;;;0.60;;
69542;SDS011;56762;49.494;11.768;2023-03-14T07:19:30;3.13;;;1.10;;
69542;SDS011;56762;49.494;11.768;2023-03-14T07:21:58;3.22;;;1.15;;
69542;SDS011;56762;49.494;11.768;2023-03-14T07:24:26;1.83;;;0.70;;
69542;SDS011;56762;49.494;11.768;2023-03-14T07:26:54;5.35;;;1.10;;
69542;SDS011;56762;49.494;11.768;2023-03-14T07:29:22;4.28;;;1.60;;
69542;SDS011;56762;49.494;11.768;2023-03-14T07:31:50;2.43;;;0.90;;
69542;SDS011;56762;49.494;11.768;2023-03-14T07:34:20;11.77;;;5.75;;
69542;SDS011;56762;49.494;11.768;2023-03-14T07:36:48;5.18;;;2.60;;
69542;SDS011;56762;49.494;11.768;2023-03-14T07:39:16;7.68;;;3.83;;
69542;SDS011;56762;49.494;11.768;2023-03-14T07:41:44;4.65;;;2.17;;
69542;SDS011;56762;49.494;11.768;2023-03-14T07:44:12;2.17;;;0.90;;
69542;SDS011;56762;49.494;11.768;2023-03-14T07:46:40;3.35;;;1.08;;
69542;SDS011;56762;49.494;11.768;2023-03-14T07:49:08;2.15;;;0.60;;
69542;SDS011;56762;49.494;11.768;2023-03-14T07:51:37;2.05;;;0.85;;
69542;SDS011;56762;49.494;11.768;2023-03-14T07:54:05;2.40;;;0.85;;
69542;SDS011;56762;49.494;11.768;2023-03-14T07:56:34;1.30;;;0.10;;
69542;SDS011;56762;49.494;11.768;2023-03-14T07:59:01;2.42;;;0.57;;
69542;SDS011;56762;49.494;11.768;2023-03-14T08:01:29;1.65;;;0.28;;
69542;SDS011;56762;49.494;11.768;2023-03-14T08:03:57;7.88;;;1.98;;
69542;SDS011;56762;49.494;11.768;2023-03-14T08:06:26;1.92;;;0.50;;
69542;SDS011;56762;49.494;11.768;2023-03-14T08:08:55;0.90;;;0.20;;
69542;SDS011;56762;49.494;11.768;2023-03-14T08:11:23;1.63;;;0.25;;
69542;SDS011;56762;49.494;11.768;2023-03-14T08:13:51;1.00;;;0.30;;
69542;SDS011;56762;49.494;11.768;2023-03-14T08:16:19;1.02;;;0.30;;
69542;SDS011;56762;49.494;11.768;2023-03-14T08:18:47;1.00;;;0.10;;
69542;SDS011;56762;49.494;11.768;2023-03-14T08:21:15;2.23;;;0.27;;
69542;SDS011;56762;49.494;11.768;2023-03-14T08:23:43;1.40;;;0.20;;
69542;SDS011;56762;49.494;11.768;2023-03-14T08:26:12;1.27;;;0.20;;
69542;SDS011;56762;49.494;11.768;2023-03-14T08:28:40;0.80;;;0.22;;
69542;SDS011;56762;49.494;11.768;2023-03-14T08:31:08;1.10;;;0.20;;
69542;SDS011;56762;49.494;11.768;2023-03-14T08:33:37;2.63;;;0.40;;
69542;SDS011;56762;49.494;11.768;2023-03-14T08:36:05;1.38;;;0.20;;
69542;SDS011;56762;49.494;11.768;2023-03-14T08:38:35;1.13;;;0.20;;
69542;SDS011;56762;49.494;11.768;2023-03-14T08:41:04;1.27;;;0.43;;
69542;SDS011;56762;49.494;11.768;2023-03-14T08:43:33;2.50;;;0.30;;
69542;SDS011;56762;49.494;11.768;2023-03-14T08:46:02;2.63;;;0.20;;
69542;SDS011;56762;49.494;11.768;2023-03-14T08:48:30;1.13;;;0.20;;
69542;SDS011;56762;49.494;11.768;2023-03-14T08:51:03;1.63;;;0.20;;
69542;SDS011;56762;49.494;11.768;2023-03-14T08:53:32;2.63;;;0.28;;
69542;SDS011;56762;49.494;11.768;2023-03-14T08:56:00;1.17;;;0.30;;
69542;SDS011;56762;49.494;11.768;2023-03-14T08:58:28;1.40;;;0.37;;
69542;SDS011;56762;49.494;11.768;2023-03-14T09:00:59;1.20;;;0.20;;
69542;SDS011;56762;49.494;11.768;2023-03-14T09:03:27;1.00;;;0.20;;
69542;SDS011;56762;49.494;11.768;2023-03-14T09:06:00;1.33;;;0.20;;
69542;SDS011;56762;49.494;11.768;2023-03-14T09:08:30;1.35;;;0.35;;
69542;SDS011;56762;49.494;11.768;2023-03-14T09:10:58;1.70;;;0.20;;
69542;SDS011;56762;49.494;11.768;2023-03-14T09:13:26;2.15;;;0.20;;
69542;SDS011;56762;49.494;11.768;2023-03-14T09:15:54;0.80;;;0.10;;
69542;SDS011;56762;49.494;11.768;2023-03-14T09:18:24;1.90;;;0.25;;
69542;SDS011;56762;49.494;11.768;2023-03-14T09:20:53;0.98;;;0.20;;
69542;SDS011;56762;49.494;11.768;2023-03-14T09:23:22;1.23;;;0.10;;
69542;SDS011;56762;49.494;11.768;2023-03-14T09:25:53;0.52;;;0.17;;
69542;SDS011;56762;49.494;11.768;2023-03-14T09:28:22;0.77;;;0.10;;
69542;SDS011;56762;49.494;11.768;2023-03-14T09:30:50;1.60;;;0.10;;
69542;SDS011;56762;49.494;11.768;2023-03-14T09:33:18;3.30;;;0.40;;
69542;SDS011;56762;49.494;11.768;2023-03-14T09:35:49;2.60;;;0.60;;
69542;SDS011;56762;49.494;11.768;2023-03-14T09:38:16;1.55;;;0.40;;
69542;SDS011;56762;49.494;11.768;2023-03-14T09:40:47;1.10;;;0.17;;
69542;SDS011;56762;49.494;11.768;2023-03-14T09:43:17;1.50;;;0.30;;
69542;SDS011;56762;49.494;11.768;2023-03-14T09:45:46;0.98;;;0.20;;
69542;SDS011;56762;49.494;11.768;2023-03-14T09:48:16;1.37;;;0.20;;
69542;SDS011;56762;49.494;11.768;2023-03-14T09:50:50;2.15;;;0.50;;
69542;SDS011;56762;49.494;11.768;2023-03-14T09:53:20;1.58;;;0.17;;
69542;SDS011;56762;49.494;11.768;2023-03-14T09:55:51;1.08;;;0.20;;
69542;SDS011;56762;49.494;11.768;2023-03-14T09:58:20;1.17;;;0.25;;
69542;SDS011;56762;49.494;11.768;2023-03-14T10:00:49;1.20;;;0.20;;
69542;SDS011;56762;49.494;11.768;2023-03-14T10:03:24;1.25;;;0.10;;
69542;SDS011;56762;49.494;11.768;2023-03-14T10:05:55;1.65;;;0.30;;
69542;SDS011;56762;49.494;11.768;2023-03-14T10:08:23;1.55;;;0.38;;
69542;SDS011;56762;49.494;11.768;2023-03-14T10:10:51;2.95;;;0.40;;
69542;SDS011;56762;49.494;11.768;2023-03-14T10:13:21;1.03;;;0.27;;
69542;SDS011;56762;49.494;11.768;2023-03-14T10:15:53;2.05;;;0.30;;
69542;SDS011;56762;49.494;11.768;2023-03-14T10:18:22;0.73;;;0.20;;
69542;SDS011;56762;49.494;11.768;2023-03-14T10:21:03;0.88;;;0.15;;
69542;SDS011;56762;49.494;11.768;2023-03-14T10:23:33;1.92;;;0.32;;
69542;SDS011;56762;49.494;11.768;2023-03-14T10:26:06;0.80;;;0.10;;
69542;SDS011;56762;49.494;11.768;2023-03-14T10:28:38;1.35;;;0.10;;
69542;SDS011;56762;49.494;11.768;2023-03-14T10:31:07;0.50;;;0.10;;
69542;SDS011;56762;49.494;11.768;2023-03-14T10:33:36;1.73;;;0.10;;
69542;SDS011;56762;49.494;11.768;2023-03-14T10:36:17;1.65;;;0.40;;
69542;SDS011;56762;49.494;11.768;2023-03-14T10:38:48;1.47;;;0.30;;
69542;SDS011;56762;49.494;11.768;2023-03-14T10:41:17;1.35;;;0.10;;
69542;SDS011;56762;49.494;11.768;2023-03-14T10:43:49;2.83;;;0.60;;
69542;SDS011;56762;49.494;11.768;2023-03-14T10:46:18;3.92;;;0.35;;
69542;SDS011;56762;49.494;11.768;2023-03-14T10:48:47;1.75;;;0.57;;
69542;SDS011;56762;49.494;11.768;2023-03-14T10:51:19;1.97;;;0.60;;
69542;SDS011;56762;49.494;11.768;2023-03-14T10:53:56;2.42;;;0.47;;
69542;SDS011;56762;49.494;11.768;2023-03-14T10:56:26;1.48;;;0.30;;
69542;SDS011;56762;49.494;11.768;2023-03-14T10:59:00;1.27;;;0.28;;
69542;SDS011;56762;49.494;11.768;2023-03-14T11:01:32;1.45;;;0.40;;
69542;SDS011;56762;49.494;11.768;2023-03-14T11:04:10;0.97;;;0.13;;
69542;SDS011;56762;49.494;11.768;2023-03-14T11:06:50;3.78;;;0.82;;
69542;SDS011;56762;49.494;11.768;2023-03-14T11:09:25;2.28;;;0.60;;
69542;SDS011;56762;49.494;11.768;2023-03-14T11:12:01;1.10;;;0.22;;
69542;SDS011;56762;49.494;11.768;2023-03-14T11:14:43;1.17;;;0.30;;
69542;SDS011;56762;49.494;11.768;2023-03-14T11:17:19;0.90;;;0.20;;
69542;SDS011;56762;49.494;11.768;2023-03-14T11:19:54;1.50;;;0.50;;
69542;SDS011;56762;49.494;11.768;2023-03-14T11:22:34;0.80;;;0.10;;
69542;SDS011;56762;49.494;11.768;2023-03-14T11:25:18;1.35;;;0.10;;
69542;SDS011;56762;49.494;11.768;2023-03-14T11:27:55;0.57;;;0.10;;
69542;SDS011;56762;49.494;11.768;2023-03-14T11:30:31;0.73;;;0.10;;
69542;SDS011;56762;49.494;11.768;2023-03-14T11:33:04;1.80;;;0.50;;
69542;SDS011;56762;49.494;11.768;2023-03-14T11:35:42;1.48;;;0.30;;
69542;SDS011;56762;49.494;11.768;2023-03-14T11:38:19;2.08;;;0.28;;
69542;SDS011;56762;49.494;11.768;2023-03-14T11:40:57;1.55;;;0.20;;
69542;SDS011;56762;49.494;11.768;2023-03-14T11:43:26;1.13;;;0.10;;
69542;SDS011;56762;49.494;11.768;2023-03-14T11:45:59;0.47;;;0.10;;
69542;SDS011;56762;49.494;11.768;2023-03-14T11:48:34;1.83;;;0.20;;
69542;SDS011;56762;49.494;11.768;2023-03-14T11:51:07;0.80;;;0.20;;
69542;SDS011;56762;49.494;11.768;2023-03-14T11:53:45;1.40;;;0.20;;
69542;SDS011;56762;49.494;11.768;2023-03-14T11:56:18;3.03;;;0.20;;
69542;SDS011;56762;49.494;11.768;2023-03-14T11:58:54;1.42;;;0.20;;
69542;SDS011;56762;49.494;11.768;2023-03-14T12:01:27;1.63;;;0.25;;
69542;SDS011;56762;49.494;11.768;2023-03-14T12:04:05;1.23;;;0.28;;
69542;SDS011;56762;49.494;11.768;2023-03-14T12:06:44;0.80;;;0.17;;
69542;SDS011;56762;49.494;11.768;2023-03-14T12:09:15;1.33;;;0.20;;
69542;SDS011;56762;49.494;11.768;2023-03-14T12:11:46;2.67;;;0.35;;
69542;SDS011;56762;49.494;11.768;2023-03-14T12:14:20;0.85;;;0.10;;
69542;SDS011;56762;49.494;11.768;2023-03-14T12:16:53;1.70;;;0.20;;
69542;SDS011;56762;49.494;11.768;2023-03-14T12:19:28;1.27;;;0.28;;
69542;SDS011;56762;49.494;11.768;2023-03-14T12:22:00;1.60;;;0.27;;
69542;SDS011;56762;49.494;11.768;2023-03-14T12:24:36;0.85;;;0.22;;
69542;SDS011;56762;49.494;11.768;2023-03-14T12:27:05;2.05;;;0.30;;
69542;SDS011;56762;49.494;11.768;2023-03-14T12:29:46;1.60;;;0.20;;
69542;SDS011;56762;49.494;11.768;2023-03-14T12:32:28;1.02;;;0.30;;
69542;SDS011;56762;49.494;11.768;2023-03-14T12:34:58;0.80;;;0.20;;
69542;SDS011;56762;49.494;11.768;2023-03-14T12:37:55;1.30;;;0.10;;
69542;SDS011;56762;49.494;11.768;2023-03-14T12:40:29;3.03;;;0.20;;
69542;SDS011;56762;49.494;11.768;2023-03-14T12:42:59;1.08;;;0.10;;
69542;SDS011;56762;49.494;11.768;2023-03-14T12:45:28;2.05;;;0.10;;
69542;SDS011;56762;49.494;11.768;2023-03-14T12:48:01;4.53;;;0.77;;
69542;SDS011;56762;49.494;11.768;2023-03-14T12:50:42;2.28;;;0.35;;
69542;SDS011;56762;49.494;11.768;2023-03-14T12:56:20;1.15;;;0.20;;
69542;SDS011;56762;49.494;11.768;2023-03-14T12:58:58;1.50;;;0.20;;
69542;SDS011;56762;49.494;11.768;2023-03-14T13:01:47;0.83;;;0.10;;
69542;SDS011;56762;49.494;11.768;2023-03-14T13:04:26;1.05;;;0.30;;
69542;SDS011;56762;49.494;11.768;2023-03-14T13:07:10;1.83;;;0.20;;
69542;SDS011;56762;49.494;11.768;2023-03-14T13:12:46;1.20;;;0.28;;
69542;SDS011;56762;49.494;11.768;2023-03-14T13:15:18;0.97;;;0.20;;
69542;SDS011;56762;49.494;11.768;2023-03-14T13:17:50;1.63;;;0.30;;
69542;SDS011;56762;49.494;11.768;2023-03-14T13:20:23;1.67;;;0.45;;
69542;SDS011;56762;49.494;11.768;2023-03-14T13:22:55;2.17;;;0.70;;
69542;SDS011;56762;49.494;11.768;2023-03-14T13:25:23;2.35;;;0.30;;
69542;SDS011;56762;49.494;11.768;2023-03-14T13:27:53;1.60;;;0.30;;
69542;SDS011;56762;49.494;11.768;2023-03-14T13:30:23;1.00;;;0.22;;
69542;SDS011;56762;49.494;11.768;2023-03-14T13:32:52;0.60;;;0.10;;
69542;SDS011;56762;49.494;11.768;2023-03-14T13:35:23;1.73;;;0.20;;
69542;SDS011;56762;49.494;11.768;2023-03-14T13:37:54;2.10;;;0.35;;
69542;SDS011;56762;49.494;11.768;2023-03-14T13:40:36;3.13;;;1.10;;
69542;SDS011;56762;49.494;11.768;2023-03-14T13:43:13;2.63;;;0.57;;
69542;SDS011;56762;49.494;11.768;2023-03-14T13:45:43;1.92;;;0.45;;
69542;SDS011;56762;49.494;11.768;2023-03-14T13:48:13;3.85;;;0.98;;
69542;SDS011;56762;49.494;11.768;2023-03-14T13:50:52;1.63;;;0.43;;
69542;SDS011;56762;49.494;11.768;2023-03-14T13:53:22;1.90;;;0.50;;
69542;SDS011;56762;49.494;11.768;2023-03-14T13:55:50;2.10;;;0.35;;
69542;SDS011;56762;49.494;11.768;2023-03-14T13:58:20;2.63;;;0.50;;
69542;SDS011;56762;49.494;11.768;2023-03-14T14:03:42;1.70;;;0.25;;
69542;SDS011;56762;49.494;11.768;2023-03-14T14:06:25;0.93;;;0.10;;
69542;SDS011;56762;49.494;11.768;2023-03-14T14:08:57;2.10;;;0.20;;
69542;SDS011;56762;49.494;11.768;2023-03-14T14:11:39;0.75;;;0.13;;
69542;SDS011;56762;49.494;11.768;2023-03-14T14:14:31;0.98;;;0.20;;
69542;SDS011;56762;49.494;11.768;2023-03-14T14:17:03;2.28;;;0.10;;
69542;SDS011;56762;49.494;11.768;2023-03-14T14:19:32;1.77;;;0.20;;
69542;SDS011;56762;49.494;11.768;2023-03-14T14:22:02;1.45;;;0.20;;
69542;SDS011;56762;49.494;11.768;2023-03-14T14:24:31;0.50;;;0.10;;
69542;SDS011;56762;49.494;11.768;2023-03-14T14:27:00;1.20;;;0.10;;
69542;SDS011;56762;49.494;11.768;2023-03-14T14:29:31;5.97;;;1.10;;
69542;SDS011;56762;49.494;11.768;2023-03-14T14:32:09;2.37;;;0.50;;
69542;SDS011;56762;49.494;11.768;2023-03-14T14:34:39;1.50;;;0.10;;
69542;SDS011;56762;49.494;11.768;2023-03-14T14:37:21;2.70;;;1.08;;
69542;SDS011;56762;49.494;11.768;2023-03-14T14:39:54;6.65;;;3.38;;
69542;SDS011;56762;49.494;11.768;2023-03-14T14:42:24;5.43;;;2.65;;
69542;SDS011;56762;49.494;11.768;2023-03-14T14:44:55;1.97;;;0.97;;
69542;SDS011;56762;49.494;11.768;2023-03-14T14:47:24;3.95;;;2.80;;
69542;SDS011;56762;49.494;11.768;2023-03-14T14:49:55;3.17;;;1.60;;
69542;SDS011;56762;49.494;11.768;2023-03-14T14:52:30;2.53;;;0.85;;
69542;SDS011;56762;49.494;11.768;2023-03-14T14:55:01;2.67;;;0.82;;
69542;SDS011;56762;49.494;11.768;2023-03-14T14:57:30;3.37;;;1.23;;
69542;SDS011;56762;49.494;11.768;2023-03-14T15:00:05;8.70;;;2.83;;